Terminal Aerodrome Forecast
Issued by NWS

Home | Current Version | Previous Version | Text Only | Print | Product List | Glossary On
Versions: 1 2 3 4 5 6 7 8 9 10 11 12 13 14 15 16 17 18 19 20 21 22 23 24 25 26 27 28 29 30 31
500
FTUS41 KBUF 170902 AAA
TAFJHW
TAF AMD
KJHW 170902Z 1709/1806 00000KT 1SM BR OVC003
     FM171300 00000KT P6SM OVC007
     FM171500 VRB03KT P6SM OVC012
     FM172300 17005KT P6SM BKN012
     FM180200 19006KT P6SM BKN007
      AMD LTD TO CLD VIS AND WIND=

USA.gov is the U.S. government's official web portal to all federal, state and local government web resources and services.